sensor_id;sensor_type;location;lat;lon;timestamp;P1;durP1;ratioP1;P2;durP2;ratioP2
8161;SDS011;16778;48.154;15.094;2024-01-30T00:02:12;39.50;;;20.50;;
8161;SDS011;16778;48.154;15.094;2024-01-30T00:04:38;35.43;;;20.13;;
8161;SDS011;16778;48.154;15.094;2024-01-30T00:07:04;36.33;;;19.47;;
8161;SDS011;16778;48.154;15.094;2024-01-30T00:09:29;42.47;;;19.77;;
8161;SDS011;16778;48.154;15.094;2024-01-30T00:11:55;38.30;;;20.70;;
8161;SDS011;16778;48.154;15.094;2024-01-30T00:14:21;40.47;;;22.33;;
8161;SDS011;16778;48.154;15.094;2024-01-30T00:16:48;38.92;;;20.17;;
8161;SDS011;16778;48.154;15.094;2024-01-30T00:19:14;42.40;;;21.08;;
8161;SDS011;16778;48.154;15.094;2024-01-30T00:21:40;43.35;;;21.60;;
8161;SDS011;16778;48.154;15.094;2024-01-30T00:24:06;38.83;;;21.30;;
8161;SDS011;16778;48.154;15.094;2024-01-30T00:26:32;39.60;;;20.57;;
8161;SDS011;16778;48.154;15.094;2024-01-30T00:28:58;40.17;;;21.20;;
8161;SDS011;16778;48.154;15.094;2024-01-30T00:31:23;40.53;;;21.23;;
8161;SDS011;16778;48.154;15.094;2024-01-30T00:33:49;41.92;;;20.88;;
8161;SDS011;16778;48.154;15.094;2024-01-30T00:36:15;41.80;;;20.00;;
8161;SDS011;16778;48.154;15.094;2024-01-30T00:38:41;39.57;;;21.40;;
8161;SDS011;16778;48.154;15.094;2024-01-30T00:41:10;45.20;;;22.27;;
8161;SDS011;16778;48.154;15.094;2024-01-30T00:43:36;45.35;;;22.17;;
8161;SDS011;16778;48.154;15.094;2024-01-30T00:46:02;42.30;;;21.33;;
8161;SDS011;16778;48.154;15.094;2024-01-30T00:48:28;47.83;;;22.03;;
8161;SDS011;16778;48.154;15.094;2024-01-30T00:50:54;46.87;;;22.90;;
8161;SDS011;16778;48.154;15.094;2024-01-30T00:53:20;41.83;;;22.58;;
8161;SDS011;16778;48.154;15.094;2024-01-30T00:55:46;50.13;;;23.83;;
8161;SDS011;16778;48.154;15.094;2024-01-30T00:58:12;46.50;;;23.07;;
8161;SDS011;16778;48.154;15.094;2024-01-30T01:00:38;46.90;;;22.52;;
8161;SDS011;16778;48.154;15.094;2024-01-30T01:03:04;42.45;;;21.88;;
8161;SDS011;16778;48.154;15.094;2024-01-30T01:05:30;38.60;;;20.60;;
8161;SDS011;16778;48.154;15.094;2024-01-30T01:07:56;41.57;;;21.67;;
8161;SDS011;16778;48.154;15.094;2024-01-30T01:10:21;46.53;;;21.67;;
8161;SDS011;16778;48.154;15.094;2024-01-30T01:12:47;44.33;;;20.73;;
8161;SDS011;16778;48.154;15.094;2024-01-30T01:15:13;38.88;;;20.85;;
8161;SDS011;16778;48.154;15.094;2024-01-30T01:17:39;35.07;;;19.93;;
8161;SDS011;16778;48.154;15.094;2024-01-30T01:20:06;39.38;;;20.95;;
8161;SDS011;16778;48.154;15.094;2024-01-30T01:22:33;39.38;;;20.95;;
8161;SDS011;16778;48.154;15.094;2024-01-30T01:25:00;43.75;;;21.52;;
8161;SDS011;16778;48.154;15.094;2024-01-30T01:27:26;43.95;;;21.75;;
8161;SDS011;16778;48.154;15.094;2024-01-30T01:29:52;51.42;;;22.63;;
8161;SDS011;16778;48.154;15.094;2024-01-30T01:32:18;47.67;;;21.88;;
8161;SDS011;16778;48.154;15.094;2024-01-30T01:34:44;46.50;;;21.05;;
8161;SDS011;16778;48.154;15.094;2024-01-30T01:37:10;42.33;;;23.50;;
8161;SDS011;16778;48.154;15.094;2024-01-30T01:39:36;48.20;;;23.07;;
8161;SDS011;16778;48.154;15.094;2024-01-30T01:42:02;47.33;;;23.40;;
8161;SDS011;16778;48.154;15.094;2024-01-30T01:44:28;46.28;;;21.98;;
8161;SDS011;16778;48.154;15.094;2024-01-30T01:46:54;49.17;;;22.27;;
8161;SDS011;16778;48.154;15.094;2024-01-30T01:49:22;46.50;;;22.77;;
8161;SDS011;16778;48.154;15.094;2024-01-30T01:51:51;44.28;;;22.70;;
8161;SDS011;16778;48.154;15.094;2024-01-30T01:54:21;44.00;;;22.77;;
8161;SDS011;16778;48.154;15.094;2024-01-30T01:56:49;47.92;;;23.10;;
8161;SDS011;16778;48.154;15.094;2024-01-30T01:59:17;40.55;;;22.90;;
8161;SDS011;16778;48.154;15.094;2024-01-30T02:01:44;43.58;;;21.40;;
8161;SDS011;16778;48.154;15.094;2024-01-30T02:04:14;44.58;;;21.40;;
8161;SDS011;16778;48.154;15.094;2024-01-30T02:06:41;39.65;;;20.45;;
8161;SDS011;16778;48.154;15.094;2024-01-30T02:09:08;46.20;;;21.35;;
8161;SDS011;16778;48.154;15.094;2024-01-30T02:11:34;45.78;;;22.02;;
8161;SDS011;16778;48.154;15.094;2024-01-30T02:14:03;43.30;;;22.48;;
8161;SDS011;16778;48.154;15.094;2024-01-30T02:16:30;43.03;;;22.45;;
8161;SDS011;16778;48.154;15.094;2024-01-30T02:18:57;40.70;;;20.92;;
8161;SDS011;16778;48.154;15.094;2024-01-30T02:21:23;38.38;;;20.30;;
8161;SDS011;16778;48.154;15.094;2024-01-30T02:23:50;44.85;;;20.95;;
8161;SDS011;16778;48.154;15.094;2024-01-30T02:26:17;44.85;;;22.05;;
8161;SDS011;16778;48.154;15.094;2024-01-30T02:28:43;40.83;;;20.90;;
8161;SDS011;16778;48.154;15.094;2024-01-30T02:31:08;46.30;;;22.00;;
8161;SDS011;16778;48.154;15.094;2024-01-30T02:33:34;39.97;;;21.33;;
8161;SDS011;16778;48.154;15.094;2024-01-30T02:36:00;48.90;;;21.90;;
8161;SDS011;16778;48.154;15.094;2024-01-30T02:38:26;40.47;;;20.57;;
8161;SDS011;16778;48.154;15.094;2024-01-30T02:40:52;43.30;;;21.80;;
8161;SDS011;16778;48.154;15.094;2024-01-30T02:43:18;42.92;;;20.52;;
8161;SDS011;16778;48.154;15.094;2024-01-30T02:45:44;40.73;;;20.77;;
8161;SDS011;16778;48.154;15.094;2024-01-30T02:48:10;43.60;;;21.40;;
8161;SDS011;16778;48.154;15.094;2024-01-30T02:50:36;43.70;;;21.37;;
8161;SDS011;16778;48.154;15.094;2024-01-30T02:53:01;47.13;;;21.20;;
8161;SDS011;16778;48.154;15.094;2024-01-30T02:55:27;41.10;;;20.53;;
8161;SDS011;16778;48.154;15.094;2024-01-30T02:57:53;45.73;;;21.93;;
8161;SDS011;16778;48.154;15.094;2024-01-30T03:00:19;37.80;;;21.27;;
8161;SDS011;16778;48.154;15.094;2024-01-30T03:02:45;41.85;;;21.77;;
8161;SDS011;16778;48.154;15.094;2024-01-30T03:05:11;43.57;;;22.03;;
8161;SDS011;16778;48.154;15.094;2024-01-30T03:07:37;34.10;;;19.20;;
8161;SDS011;16778;48.154;15.094;2024-01-30T03:10:06;43.27;;;21.87;;
8161;SDS011;16778;48.154;15.094;2024-01-30T03:12:32;39.88;;;20.92;;
8161;SDS011;16778;48.154;15.094;2024-01-30T03:14:58;49.90;;;21.63;;
8161;SDS011;16778;48.154;15.094;2024-01-30T03:17:24;40.97;;;19.83;;
8161;SDS011;16778;48.154;15.094;2024-01-30T03:19:50;38.23;;;20.20;;
8161;SDS011;16778;48.154;15.094;2024-01-30T03:22:16;43.97;;;21.23;;
8161;SDS011;16778;48.154;15.094;2024-01-30T03:24:42;46.78;;;22.35;;
8161;SDS011;16778;48.154;15.094;2024-01-30T03:27:08;39.83;;;20.77;;
8161;SDS011;16778;48.154;15.094;2024-01-30T03:29:34;43.00;;;22.38;;
8161;SDS011;16778;48.154;15.094;2024-01-30T03:32:00;42.80;;;21.27;;
8161;SDS011;16778;48.154;15.094;2024-01-30T03:34:26;45.83;;;23.10;;
8161;SDS011;16778;48.154;15.094;2024-01-30T03:36:52;43.63;;;21.67;;
8161;SDS011;16778;48.154;15.094;2024-01-30T03:39:17;45.87;;;22.47;;
8161;SDS011;16778;48.154;15.094;2024-01-30T03:41:43;43.53;;;22.43;;
8161;SDS011;16778;48.154;15.094;2024-01-30T03:44:09;43.93;;;22.00;;
8161;SDS011;16778;48.154;15.094;2024-01-30T03:46:35;42.15;;;21.90;;
8161;SDS011;16778;48.154;15.094;2024-01-30T03:49:01;40.30;;;22.03;;
8161;SDS011;16778;48.154;15.094;2024-01-30T03:51:27;42.37;;;22.53;;
8161;SDS011;16778;48.154;15.094;2024-01-30T03:53:53;42.47;;;22.10;;
8161;SDS011;16778;48.154;15.094;2024-01-30T03:56:19;56.77;;;22.40;;
8161;SDS011;16778;48.154;15.094;2024-01-30T03:58:49;45.90;;;23.20;;
8161;SDS011;16778;48.154;15.094;2024-01-30T04:01:15;43.33;;;22.73;;
8161;SDS011;16778;48.154;15.094;2024-01-30T04:03:41;37.13;;;21.00;;
8161;SDS011;16778;48.154;15.094;2024-01-30T04:06:08;45.83;;;21.38;;
8161;SDS011;16778;48.154;15.094;2024-01-30T04:08:34;45.23;;;22.57;;
8161;SDS011;16778;48.154;15.094;2024-01-30T04:11:06;45.30;;;21.20;;
8161;SDS011;16778;48.154;15.094;2024-01-30T04:13:32;47.55;;;22.35;;
8161;SDS011;16778;48.154;15.094;2024-01-30T04:16:02;48.33;;;22.17;;
8161;SDS011;16778;48.154;15.094;2024-01-30T04:18:28;47.10;;;21.88;;
8161;SDS011;16778;48.154;15.094;2024-01-30T04:20:55;51.05;;;22.73;;
8161;SDS011;16778;48.154;15.094;2024-01-30T04:23:20;45.87;;;22.60;;
8161;SDS011;16778;48.154;15.094;2024-01-30T04:25:47;43.20;;;21.48;;
8161;SDS011;16778;48.154;15.094;2024-01-30T04:28:12;46.50;;;22.47;;
8161;SDS011;16778;48.154;15.094;2024-01-30T04:30:38;43.90;;;23.17;;
8161;SDS011;16778;48.154;15.094;2024-01-30T04:33:04;41.70;;;21.70;;
8161;SDS011;16778;48.154;15.094;2024-01-30T04:35:31;41.72;;;21.52;;
8161;SDS011;16778;48.154;15.094;2024-01-30T04:37:56;48.87;;;22.10;;
8161;SDS011;16778;48.154;15.094;2024-01-30T04:40:22;45.63;;;23.03;;
8161;SDS011;16778;48.154;15.094;2024-01-30T04:42:48;45.90;;;22.83;;
8161;SDS011;16778;48.154;15.094;2024-01-30T04:45:14;44.23;;;22.60;;
8161;SDS011;16778;48.154;15.094;2024-01-30T04:47:40;47.50;;;22.23;;
8161;SDS011;16778;48.154;15.094;2024-01-30T04:50:06;41.00;;;22.40;;
8161;SDS011;16778;48.154;15.094;2024-01-30T04:52:33;49.13;;;22.55;;
8161;SDS011;16778;48.154;15.094;2024-01-30T04:55:00;47.38;;;23.02;;
8161;SDS011;16778;48.154;15.094;2024-01-30T04:57:26;47.90;;;22.57;;
8161;SDS011;16778;48.154;15.094;2024-01-30T04:59:51;49.30;;;23.13;;
8161;SDS011;16778;48.154;15.094;2024-01-30T05:02:17;49.63;;;22.67;;
8161;SDS011;16778;48.154;15.094;2024-01-30T05:04:43;51.70;;;23.77;;
8161;SDS011;16778;48.154;15.094;2024-01-30T05:07:09;55.07;;;23.20;;
8161;SDS011;16778;48.154;15.094;2024-01-30T05:09:35;51.20;;;24.40;;
8161;SDS011;16778;48.154;15.094;2024-01-30T05:12:00;41.87;;;23.23;;
8161;SDS011;16778;48.154;15.094;2024-01-30T05:14:27;46.60;;;23.25;;
8161;SDS011;16778;48.154;15.094;2024-01-30T05:16:53;46.23;;;22.83;;
8161;SDS011;16778;48.154;15.094;2024-01-30T05:19:19;47.30;;;23.13;;
8161;SDS011;16778;48.154;15.094;2024-01-30T05:21:46;43.00;;;22.63;;
8161;SDS011;16778;48.154;15.094;2024-01-30T05:24:12;54.40;;;24.30;;
8161;SDS011;16778;48.154;15.094;2024-01-30T05:26:38;44.93;;;23.43;;
8161;SDS011;16778;48.154;15.094;2024-01-30T05:29:04;48.87;;;23.80;;
8161;SDS011;16778;48.154;15.094;2024-01-30T05:31:31;59.35;;;25.80;;
8161;SDS011;16778;48.154;15.094;2024-01-30T05:33:57;47.43;;;24.07;;
8161;SDS011;16778;48.154;15.094;2024-01-30T05:36:23;59.20;;;26.37;;
8161;SDS011;16778;48.154;15.094;2024-01-30T05:38:49;52.50;;;25.73;;
8161;SDS011;16778;48.154;15.094;2024-01-30T05:41:15;49.63;;;25.53;;
8161;SDS011;16778;48.154;15.094;2024-01-30T05:43:41;58.83;;;25.47;;
8161;SDS011;16778;48.154;15.094;2024-01-30T05:46:07;57.67;;;25.85;;
8161;SDS011;16778;48.154;15.094;2024-01-30T05:48:33;72.00;;;35.67;;
8161;SDS011;16778;48.154;15.094;2024-01-30T05:51:00;55.92;;;29.02;;
8161;SDS011;16778;48.154;15.094;2024-01-30T05:53:27;61.33;;;32.25;;
8161;SDS011;16778;48.154;15.094;2024-01-30T05:55:53;53.73;;;28.47;;
8161;SDS011;16778;48.154;15.094;2024-01-30T05:58:19;59.47;;;28.40;;
8161;SDS011;16778;48.154;15.094;2024-01-30T06:00:45;57.93;;;28.03;;
8161;SDS011;16778;48.154;15.094;2024-01-30T06:03:10;57.17;;;27.90;;
8161;SDS011;16778;48.154;15.094;2024-01-30T06:05:36;54.03;;;27.20;;
8161;SDS011;16778;48.154;15.094;2024-01-30T06:08:02;51.77;;;25.83;;
8161;SDS011;16778;48.154;15.094;2024-01-30T06:10:28;51.10;;;26.23;;
8161;SDS011;16778;48.154;15.094;2024-01-30T06:12:54;53.63;;;25.47;;
8161;SDS011;16778;48.154;15.094;2024-01-30T06:15:20;45.83;;;24.37;;
8161;SDS011;16778;48.154;15.094;2024-01-30T06:17:45;43.23;;;21.47;;
8161;SDS011;16778;48.154;15.094;2024-01-30T06:20:11;43.27;;;22.90;;
8161;SDS011;16778;48.154;15.094;2024-01-30T06:22:37;40.60;;;21.97;;
8161;SDS011;16778;48.154;15.094;2024-01-30T06:25:03;41.90;;;22.37;;
8161;SDS011;16778;48.154;15.094;2024-01-30T06:27:29;44.20;;;21.63;;
8161;SDS011;16778;48.154;15.094;2024-01-30T06:29:55;39.47;;;21.10;;
8161;SDS011;16778;48.154;15.094;2024-01-30T06:32:21;38.43;;;21.43;;
8161;SDS011;16778;48.154;15.094;2024-01-30T06:34:46;41.53;;;21.30;;
8161;SDS011;16778;48.154;15.094;2024-01-30T06:37:12;41.53;;;21.67;;
8161;SDS011;16778;48.154;15.094;2024-01-30T06:39:38;43.20;;;21.90;;
8161;SDS011;16778;48.154;15.094;2024-01-30T06:42:04;38.87;;;20.53;;
8161;SDS011;16778;48.154;15.094;2024-01-30T06:44:30;37.40;;;20.27;;
8161;SDS011;16778;48.154;15.094;2024-01-30T06:46:55;40.73;;;19.63;;
8161;SDS011;16778;48.154;15.094;2024-01-30T06:49:21;42.87;;;20.57;;
8161;SDS011;16778;48.154;15.094;2024-01-30T06:51:47;37.80;;;19.53;;
8161;SDS011;16778;48.154;15.094;2024-01-30T06:54:13;33.77;;;19.00;;
8161;SDS011;16778;48.154;15.094;2024-01-30T06:56:39;38.57;;;19.77;;
8161;SDS011;16778;48.154;15.094;2024-01-30T06:59:05;43.40;;;19.20;;
8161;SDS011;16778;48.154;15.094;2024-01-30T07:01:31;36.67;;;20.17;;
8161;SDS011;16778;48.154;15.094;2024-01-30T07:03:57;39.00;;;19.90;;
8161;SDS011;16778;48.154;15.094;2024-01-30T07:06:23;38.40;;;20.23;;
8161;SDS011;16778;48.154;15.094;2024-01-30T07:08:49;42.70;;;20.17;;
8161;SDS011;16778;48.154;15.094;2024-01-30T07:11:19;37.22;;;19.17;;
8161;SDS011;16778;48.154;15.094;2024-01-30T07:13:47;39.03;;;20.38;;
8161;SDS011;16778;48.154;15.094;2024-01-30T07:16:13;40.53;;;20.95;;
8161;SDS011;16778;48.154;15.094;2024-01-30T07:18:40;42.10;;;21.30;;
8161;SDS011;16778;48.154;15.094;2024-01-30T07:21:06;40.30;;;21.83;;
8161;SDS011;16778;48.154;15.094;2024-01-30T07:23:32;37.00;;;21.67;;
8161;SDS011;16778;48.154;15.094;2024-01-30T07:26:00;38.40;;;20.70;;
8161;SDS011;16778;48.154;15.094;2024-01-30T07:28:28;43.45;;;21.20;;
8161;SDS011;16778;48.154;15.094;2024-01-30T07:30:55;41.50;;;22.37;;
8161;SDS011;16778;48.154;15.094;2024-01-30T07:33:21;39.53;;;23.17;;
8161;SDS011;16778;48.154;15.094;2024-01-30T07:35:46;45.27;;;22.67;;
8161;SDS011;16778;48.154;15.094;2024-01-30T07:38:12;50.20;;;23.33;;
8161;SDS011;16778;48.154;15.094;2024-01-30T07:40:38;49.37;;;23.00;;
8161;SDS011;16778;48.154;15.094;2024-01-30T07:43:04;41.07;;;22.13;;
8161;SDS011;16778;48.154;15.094;2024-01-30T07:45:30;38.13;;;22.20;;
8161;SDS011;16778;48.154;15.094;2024-01-30T07:47:58;42.40;;;21.90;;
8161;SDS011;16778;48.154;15.094;2024-01-30T07:50:25;36.50;;;19.67;;
8161;SDS011;16778;48.154;15.094;2024-01-30T07:52:51;36.03;;;20.80;;
8161;SDS011;16778;48.154;15.094;2024-01-30T07:58:13;36.40;;;19.73;;
8161;SDS011;16778;48.154;15.094;2024-01-30T08:00:39;34.27;;;19.20;;
8161;SDS011;16778;48.154;15.094;2024-01-30T08:03:05;36.67;;;19.03;;
8161;SDS011;16778;48.154;15.094;2024-01-30T08:05:31;37.63;;;20.37;;
8161;SDS011;16778;48.154;15.094;2024-01-30T08:07:56;33.17;;;19.03;;
8161;SDS011;16778;48.154;15.094;2024-01-30T08:10:22;32.67;;;19.00;;
8161;SDS011;16778;48.154;15.094;2024-01-30T08:12:48;29.97;;;18.23;;
8161;SDS011;16778;48.154;15.094;2024-01-30T08:15:14;34.00;;;19.20;;
8161;SDS011;16778;48.154;15.094;2024-01-30T08:17:40;33.87;;;19.43;;
8161;SDS011;16778;48.154;15.094;2024-01-30T08:20:06;35.77;;;19.67;;
8161;SDS011;16778;48.154;15.094;2024-01-30T08:22:33;31.07;;;17.77;;
8161;SDS011;16778;48.154;15.094;2024-01-30T08:24:59;32.63;;;19.13;;
8161;SDS011;16778;48.154;15.094;2024-01-30T08:27:25;30.87;;;17.17;;
8161;SDS011;16778;48.154;15.094;2024-01-30T08:29:51;35.20;;;19.87;;
8161;SDS011;16778;48.154;15.094;2024-01-30T08:32:17;34.50;;;19.90;;
8161;SDS011;16778;48.154;15.094;2024-01-30T08:34:42;35.07;;;19.77;;
8161;SDS011;16778;48.154;15.094;2024-01-30T08:37:08;33.50;;;20.17;;
8161;SDS011;16778;48.154;15.094;2024-01-30T08:39:34;31.93;;;19.30;;
8161;SDS011;16778;48.154;15.094;2024-01-30T08:42:00;32.40;;;18.50;;
8161;SDS011;16778;48.154;15.094;2024-01-30T08:44:26;33.87;;;18.87;;
8161;SDS011;16778;48.154;15.094;2024-01-30T08:46:52;31.43;;;18.03;;
8161;SDS011;16778;48.154;15.094;2024-01-30T08:49:19;35.53;;;20.07;;
8161;SDS011;16778;48.154;15.094;2024-01-30T08:51:45;30.17;;;18.33;;
8161;SDS011;16778;48.154;15.094;2024-01-30T08:54:12;34.07;;;18.53;;
8161;SDS011;16778;48.154;15.094;2024-01-30T08:56:38;31.90;;;18.50;;
8161;SDS011;16778;48.154;15.094;2024-01-30T08:59:03;31.10;;;19.07;;
8161;SDS011;16778;48.154;15.094;2024-01-30T09:01:29;32.90;;;18.47;;
8161;SDS011;16778;48.154;15.094;2024-01-30T09:03:55;35.70;;;19.47;;
8161;SDS011;16778;48.154;15.094;2024-01-30T09:06:21;32.83;;;18.20;;
8161;SDS011;16778;48.154;15.094;2024-01-30T09:08:47;35.03;;;18.93;;
8161;SDS011;16778;48.154;15.094;2024-01-30T09:11:13;37.23;;;19.77;;
8161;SDS011;16778;48.154;15.094;2024-01-30T09:13:40;30.87;;;19.00;;
8161;SDS011;16778;48.154;15.094;2024-01-30T09:16:07;37.83;;;19.57;;
8161;SDS011;16778;48.154;15.094;2024-01-30T09:18:33;31.43;;;19.60;;
8161;SDS011;16778;48.154;15.094;2024-01-30T09:20:59;34.30;;;18.43;;
8161;SDS011;16778;48.154;15.094;2024-01-30T09:23:25;39.73;;;20.37;;
8161;SDS011;16778;48.154;15.094;2024-01-30T09:25:53;38.47;;;21.00;;
8161;SDS011;16778;48.154;15.094;2024-01-30T09:28:20;37.20;;;21.87;;
8161;SDS011;16778;48.154;15.094;2024-01-30T09:30:45;36.73;;;19.77;;
8161;SDS011;16778;48.154;15.094;2024-01-30T09:33:11;35.00;;;19.73;;
8161;SDS011;16778;48.154;15.094;2024-01-30T09:35:37;38.40;;;20.80;;
8161;SDS011;16778;48.154;15.094;2024-01-30T09:38:03;38.40;;;21.40;;
8161;SDS011;16778;48.154;15.094;2024-01-30T09:40:29;35.70;;;19.77;;
8161;SDS011;16778;48.154;15.094;2024-01-30T09:42:55;36.43;;;21.43;;
8161;SDS011;16778;48.154;15.094;2024-01-30T09:45:23;35.30;;;20.33;;
8161;SDS011;16778;48.154;15.094;2024-01-30T09:47:50;32.23;;;19.13;;
8161;SDS011;16778;48.154;15.094;2024-01-30T09:50:17;36.70;;;19.30;;
8161;SDS011;16778;48.154;15.094;2024-01-30T09:52:44;30.23;;;18.23;;
8161;SDS011;16778;48.154;15.094;2024-01-30T09:55:10;35.10;;;18.87;;
8161;SDS011;16778;48.154;15.094;2024-01-30T09:57:36;31.43;;;16.87;;
8161;SDS011;16778;48.154;15.094;2024-01-30T10:00:05;34.47;;;19.17;;
8161;SDS011;16778;48.154;15.094;2024-01-30T10:02:35;30.53;;;19.03;;
8161;SDS011;16778;48.154;15.094;2024-01-30T10:05:01;31.73;;;17.93;;
8161;SDS011;16778;48.154;15.094;2024-01-30T10:07:27;37.60;;;18.93;;
8161;SDS011;16778;48.154;15.094;2024-01-30T10:09:53;34.20;;;19.60;;
8161;SDS011;16778;48.154;15.094;2024-01-30T10:12:21;31.77;;;19.00;;
8161;SDS011;16778;48.154;15.094;2024-01-30T10:14:48;33.43;;;17.53;;
8161;SDS011;16778;48.154;15.094;2024-01-30T10:17:14;34.03;;;19.23;;
8161;SDS011;16778;48.154;15.094;2024-01-30T10:19:39;32.27;;;19.27;;
8161;SDS011;16778;48.154;15.094;2024-01-30T10:22:06;31.83;;;19.23;;
8161;SDS011;16778;48.154;15.094;2024-01-30T10:24:35;33.23;;;18.67;;
8161;SDS011;16778;48.154;15.094;2024-01-30T10:27:02;34.03;;;18.90;;
8161;SDS011;16778;48.154;15.094;2024-01-30T10:29:30;37.83;;;18.00;;
8161;SDS011;16778;48.154;15.094;2024-01-30T10:32:00;31.00;;;18.47;;
8161;SDS011;16778;48.154;15.094;2024-01-30T10:34:28;35.00;;;19.23;;
8161;SDS011;16778;48.154;15.094;2024-01-30T10:37:06;28.43;;;18.97;;
8161;SDS011;16778;48.154;15.094;2024-01-30T10:39:42;32.00;;;18.60;;
8161;SDS011;16778;48.154;15.094;2024-01-30T10:42:13;28.97;;;18.03;;
8161;SDS011;16778;48.154;15.094;2024-01-30T10:47:34;29.80;;;17.97;;
8161;SDS011;16778;48.154;15.094;2024-01-30T10:50:05;32.13;;;18.90;;
8161;SDS011;16778;48.154;15.094;2024-01-30T10:52:33;29.27;;;17.80;;
8161;SDS011;16778;48.154;15.094;2024-01-30T10:55:00;31.30;;;17.80;;
8161;SDS011;16778;48.154;15.094;2024-01-30T10:57:26;27.13;;;18.63;;
8161;SDS011;16778;48.154;15.094;2024-01-30T10:59:53;33.40;;;19.70;;
8161;SDS011;16778;48.154;15.094;2024-01-30T11:02:23;34.73;;;18.33;;
8161;SDS011;16778;48.154;15.094;2024-01-30T11:04:49;30.17;;;18.87;;
8161;SDS011;16778;48.154;15.094;2024-01-30T11:07:28;31.00;;;18.93;;
8161;SDS011;16778;48.154;15.094;2024-01-30T11:12:24;31.63;;;17.80;;
8161;SDS011;16778;48.154;15.094;2024-01-30T11:17:39;29.07;;;17.67;;
8161;SDS011;16778;48.154;15.094;2024-01-30T11:20:16;35.47;;;19.13;;
8161;SDS011;16778;48.154;15.094;2024-01-30T11:22:58;32.77;;;19.13;;
8161;SDS011;16778;48.154;15.094;2024-01-30T11:25:27;31.73;;;19.47;;
8161;SDS011;16778;48.154;15.094;2024-01-30T11:27:53;36.30;;;19.23;;
8161;SDS011;16778;48.154;15.094;2024-01-30T11:30:21;29.07;;;18.27;;
8161;SDS011;16778;48.154;15.094;2024-01-30T11:33:02;30.97;;;18.03;;
8161;SDS011;16778;48.154;15.094;2024-01-30T11:35:33;32.63;;;19.40;;
8161;SDS011;16778;48.154;15.094;2024-01-30T11:38:06;30.40;;;19.33;;
8161;SDS011;16778;48.154;15.094;2024-01-30T11:40:34;35.67;;;20.63;;
8161;SDS011;16778;48.154;15.094;2024-01-30T11:43:03;33.30;;;19.30;;
8161;SDS011;16778;48.154;15.094;2024-01-30T11:45:31;30.10;;;19.23;;
8161;SDS011;16778;48.154;15.094;2024-01-30T11:47:58;29.57;;;18.17;;
8161;SDS011;16778;48.154;15.094;2024-01-30T11:50:28;32.33;;;18.90;;
8161;SDS011;16778;48.154;15.094;2024-01-30T11:52:55;34.03;;;19.87;;
8161;SDS011;16778;48.154;15.094;2024-01-30T11:55:22;37.83;;;19.87;;
8161;SDS011;16778;48.154;15.094;2024-01-30T11:57:49;32.83;;;20.40;;
8161;SDS011;16778;48.154;15.094;2024-01-30T12:00:15;33.33;;;18.50;;
8161;SDS011;16778;48.154;15.094;2024-01-30T12:02:49;36.07;;;19.50;;
8161;SDS011;16778;48.154;15.094;2024-01-30T12:05:20;32.60;;;20.83;;
8161;SDS011;16778;48.154;15.094;2024-01-30T12:07:50;33.93;;;20.40;;
8161;SDS011;16778;48.154;15.094;2024-01-30T12:10:16;39.43;;;21.77;;
8161;SDS011;16778;48.154;15.094;2024-01-30T12:12:49;37.77;;;20.40;;
8161;SDS011;16778;48.154;15.094;2024-01-30T12:15:15;40.50;;;19.00;;
8161;SDS011;16778;48.154;15.094;2024-01-30T12:17:42;33.17;;;19.93;;
8161;SDS011;16778;48.154;15.094;2024-01-30T12:20:09;32.20;;;19.60;;
8161;SDS011;16778;48.154;15.094;2024-01-30T12:22:43;31.93;;;20.00;;
8161;SDS011;16778;48.154;15.094;2024-01-30T12:27:38;32.87;;;20.60;;
8161;SDS011;16778;48.154;15.094;2024-01-30T12:30:07;32.20;;;19.30;;
8161;SDS011;16778;48.154;15.094;2024-01-30T12:32:39;35.43;;;20.07;;
8161;SDS011;16778;48.154;15.094;2024-01-30T12:35:13;35.20;;;19.83;;
8161;SDS011;16778;48.154;15.094;2024-01-30T12:37:44;35.53;;;20.93;;
8161;SDS011;16778;48.154;15.094;2024-01-30T12:40:11;35.17;;;20.80;;
8161;SDS011;16778;48.154;15.094;2024-01-30T12:42:39;34.57;;;19.17;;
8161;SDS011;16778;48.154;15.094;2024-01-30T12:45:13;35.87;;;21.03;;
8161;SDS011;16778;48.154;15.094;2024-01-30T12:47:40;38.57;;;20.77;;
8161;SDS011;16778;48.154;15.094;2024-01-30T12:50:07;32.50;;;19.00;;
8161;SDS011;16778;48.154;15.094;2024-01-30T12:52:33;35.87;;;20.30;;
8161;SDS011;16778;48.154;15.094;2024-01-30T12:55:00;32.23;;;20.47;;
8161;SDS011;16778;48.154;15.094;2024-01-30T12:57:26;39.90;;;21.07;;
8161;SDS011;16778;48.154;15.094;2024-01-30T12:59:52;33.40;;;20.30;;
8161;SDS011;16778;48.154;15.094;2024-01-30T13:02:18;36.13;;;19.97;;
8161;SDS011;16778;48.154;15.094;2024-01-30T13:04:44;38.20;;;20.87;;
8161;SDS011;16778;48.154;15.094;2024-01-30T13:07:10;32.70;;;19.10;;
8161;SDS011;16778;48.154;15.094;2024-01-30T13:09:35;35.37;;;19.57;;
8161;SDS011;16778;48.154;15.094;2024-01-30T13:12:03;32.57;;;19.43;;
8161;SDS011;16778;48.154;15.094;2024-01-30T13:14:29;32.70;;;19.93;;
8161;SDS011;16778;48.154;15.094;2024-01-30T13:16:55;33.30;;;19.03;;
8161;SDS011;16778;48.154;15.094;2024-01-30T13:19:20;38.23;;;22.13;;
8161;SDS011;16778;48.154;15.094;2024-01-30T13:21:46;32.03;;;19.00;;
8161;SDS011;16778;48.154;15.094;2024-01-30T13:24:12;34.50;;;20.30;;
8161;SDS011;16778;48.154;15.094;2024-01-30T13:26:39;33.60;;;19.73;;
8161;SDS011;16778;48.154;15.094;2024-01-30T13:29:05;31.03;;;18.97;;
8161;SDS011;16778;48.154;15.094;2024-01-30T13:31:31;30.53;;;18.60;;
8161;SDS011;16778;48.154;15.094;2024-01-30T13:33:56;34.80;;;20.07;;
8161;SDS011;16778;48.154;15.094;2024-01-30T13:36:22;34.17;;;19.40;;
8161;SDS011;16778;48.154;15.094;2024-01-30T13:38:48;35.93;;;20.77;;
8161;SDS011;16778;48.154;15.094;2024-01-30T13:41:14;33.43;;;19.30;;
8161;SDS011;16778;48.154;15.094;2024-01-30T13:43:41;38.57;;;21.33;;
8161;SDS011;16778;48.154;15.094;2024-01-30T13:46:09;39.43;;;20.40;;
8161;SDS011;16778;48.154;15.094;2024-01-30T13:48:35;38.60;;;20.50;;
8161;SDS011;16778;48.154;15.094;2024-01-30T13:51:01;34.63;;;20.80;;
8161;SDS011;16778;48.154;15.094;2024-01-30T13:53:26;41.00;;;21.20;;
8161;SDS011;16778;48.154;15.094;2024-01-30T13:55:52;33.10;;;18.60;;
8161;SDS011;16778;48.154;15.094;2024-01-30T13:58:18;38.30;;;20.70;;
8161;SDS011;16778;48.154;15.094;2024-01-30T14:00:44;33.90;;;20.17;;
8161;SDS011;16778;48.154;15.094;2024-01-30T14:03:10;30.77;;;18.90;;
8161;SDS011;16778;48.154;15.094;2024-01-30T14:05:36;34.53;;;19.80;;
8161;SDS011;16778;48.154;15.094;2024-01-30T14:08:02;32.67;;;20.67;;
8161;SDS011;16778;48.154;15.094;2024-01-30T14:10:28;31.57;;;18.47;;
8161;SDS011;16778;48.154;15.094;2024-01-30T14:12:54;36.67;;;21.30;;
8161;SDS011;16778;48.154;15.094;2024-01-30T14:15:21;34.37;;;20.03;;
8161;SDS011;16778;48.154;15.094;2024-01-30T14:17:47;33.80;;;19.90;;
8161;SDS011;16778;48.154;15.094;2024-01-30T14:20:14;33.43;;;20.40;;
8161;SDS011;16778;48.154;15.094;2024-01-30T14:22:44;36.77;;;21.20;;
8161;SDS011;16778;48.154;15.094;2024-01-30T14:25:10;40.93;;;21.63;;
8161;SDS011;16778;48.154;15.094;2024-01-30T14:27:37;35.60;;;20.60;;
8161;SDS011;16778;48.154;15.094;2024-01-30T14:30:03;74.03;;;34.93;;
8161;SDS011;16778;48.154;15.094;2024-01-30T14:32:29;39.93;;;22.50;;